sensor_id;sensor_type;location;lat;lon;timestamp;temperature;humidity
9219;DHT22;4644;48.858;9.184;2023-01-31T00:00:52;3.30;99.90
9219;DHT22;4644;48.858;9.184;2023-01-31T00:03:19;3.30;99.90
9219;DHT22;4644;48.858;9.184;2023-01-31T00:05:46;3.30;99.90
9219;DHT22;4644;48.858;9.184;2023-01-31T00:08:13;3.20;99.90
9219;DHT22;4644;48.858;9.184;2023-01-31T00:10:40;3.20;99.90
9219;DHT22;4644;48.858;9.184;2023-01-31T00:13:07;3.20;99.90
9219;DHT22;4644;48.858;9.184;2023-01-31T00:15:34;3.20;99.90
9219;DHT22;4644;48.858;9.184;2023-01-31T00:18:02;3.10;99.90
9219;DHT22;4644;48.858;9.184;2023-01-31T00:20:29;3.00;99.90
9219;DHT22;4644;48.858;9.184;2023-01-31T00:22:57;3.00;99.90
9219;DHT22;4644;48.858;9.184;2023-01-31T00:25:24;3.00;99.90
9219;DHT22;4644;48.858;9.184;2023-01-31T00:27:51;3.00;99.90
9219;DHT22;4644;48.858;9.184;2023-01-31T00:30:18;2.90;99.90
9219;DHT22;4644;48.858;9.184;2023-01-31T00:32:45;3.00;99.90
9219;DHT22;4644;48.858;9.184;2023-01-31T00:35:13;2.90;99.90
9219;DHT22;4644;48.858;9.184;2023-01-31T00:37:40;2.90;99.90
9219;DHT22;4644;48.858;9.184;2023-01-31T00:40:08;2.90;99.90
9219;DHT22;4644;48.858;9.184;2023-01-31T00:42:35;2.90;99.90
9219;DHT22;4644;48.858;9.184;2023-01-31T00:45:03;3.00;99.90
9219;DHT22;4644;48.858;9.184;2023-01-31T00:47:30;3.00;99.90
9219;DHT22;4644;48.858;9.184;2023-01-31T00:49:56;3.00;99.90
9219;DHT22;4644;48.858;9.184;2023-01-31T00:52:25;3.00;99.90
9219;DHT22;4644;48.858;9.184;2023-01-31T00:54:52;3.00;99.90
9219;DHT22;4644;48.858;9.184;2023-01-31T00:57:19;3.00;99.90
9219;DHT22;4644;48.858;9.184;2023-01-31T00:59:46;2.90;99.90
9219;DHT22;4644;48.858;9.184;2023-01-31T01:02:13;2.90;99.90
9219;DHT22;4644;48.858;9.184;2023-01-31T01:04:40;2.90;99.90
9219;DHT22;4644;48.858;9.184;2023-01-31T01:07:06;2.90;99.90
9219;DHT22;4644;48.858;9.184;2023-01-31T01:09:35;2.80;99.90
9219;DHT22;4644;48.858;9.184;2023-01-31T01:12:02;2.80;99.90
9219;DHT22;4644;48.858;9.184;2023-01-31T01:14:29;2.80;99.90
9219;DHT22;4644;48.858;9.184;2023-01-31T01:16:56;2.80;99.90
9219;DHT22;4644;48.858;9.184;2023-01-31T01:19:23;2.70;99.90
9219;DHT22;4644;48.858;9.184;2023-01-31T01:21:53;2.70;99.90
9219;DHT22;4644;48.858;9.184;2023-01-31T01:24:20;2.70;99.90
9219;DHT22;4644;48.858;9.184;2023-01-31T01:26:48;2.70;99.90
9219;DHT22;4644;48.858;9.184;2023-01-31T01:29:15;2.60;99.90
9219;DHT22;4644;48.858;9.184;2023-01-31T01:31:42;2.60;99.90
9219;DHT22;4644;48.858;9.184;2023-01-31T01:34:12;2.50;99.90
9219;DHT22;4644;48.858;9.184;2023-01-31T01:36:39;2.50;99.90
9219;DHT22;4644;48.858;9.184;2023-01-31T01:39:08;2.40;99.90
9219;DHT22;4644;48.858;9.184;2023-01-31T01:41:37;2.40;99.90
9219;DHT22;4644;48.858;9.184;2023-01-31T01:47:09;2.30;99.90
9219;DHT22;4644;48.858;9.184;2023-01-31T01:49:38;2.20;99.90
9219;DHT22;4644;48.858;9.184;2023-01-31T01:52:08;2.10;99.90
9219;DHT22;4644;48.858;9.184;2023-01-31T01:54:41;2.10;99.90
9219;DHT22;4644;48.858;9.184;2023-01-31T01:57:10;2.10;99.90
9219;DHT22;4644;48.858;9.184;2023-01-31T01:59:42;2.00;99.90
9219;DHT22;4644;48.858;9.184;2023-01-31T02:02:13;1.90;99.90
9219;DHT22;4644;48.858;9.184;2023-01-31T02:04:41;1.90;99.90
9219;DHT22;4644;48.858;9.184;2023-01-31T02:07:09;1.90;99.90
9219;DHT22;4644;48.858;9.184;2023-01-31T02:09:43;1.90;99.90
9219;DHT22;4644;48.858;9.184;2023-01-31T02:12:11;1.80;99.90
9219;DHT22;4644;48.858;9.184;2023-01-31T02:14:39;1.80;99.90
9219;DHT22;4644;48.858;9.184;2023-01-31T02:17:12;1.80;99.90
9219;DHT22;4644;48.858;9.184;2023-01-31T02:19:47;1.80;99.90
9219;DHT22;4644;48.858;9.184;2023-01-31T02:22:20;1.90;99.90
9219;DHT22;4644;48.858;9.184;2023-01-31T02:28:19;1.90;99.90
9219;DHT22;4644;48.858;9.184;2023-01-31T02:34:08;2.10;99.90
9219;DHT22;4644;48.858;9.184;2023-01-31T02:36:47;2.10;99.90
9219;DHT22;4644;48.858;9.184;2023-01-31T02:39:25;2.10;99.90
9219;DHT22;4644;48.858;9.184;2023-01-31T02:41:58;2.10;99.90
9219;DHT22;4644;48.858;9.184;2023-01-31T02:44:35;2.10;99.90
9219;DHT22;4644;48.858;9.184;2023-01-31T02:47:28;2.20;99.90
9219;DHT22;4644;48.858;9.184;2023-01-31T02:50:02;2.30;99.90
9219;DHT22;4644;48.858;9.184;2023-01-31T02:52:38;2.30;99.90
9219;DHT22;4644;48.858;9.184;2023-01-31T02:55:11;2.30;99.90
9219;DHT22;4644;48.858;9.184;2023-01-31T02:57:57;2.30;99.90
9219;DHT22;4644;48.858;9.184;2023-01-31T03:00:26;2.30;99.90
9219;DHT22;4644;48.858;9.184;2023-01-31T03:02:54;2.30;99.90
9219;DHT22;4644;48.858;9.184;2023-01-31T03:05:22;2.30;99.90
9219;DHT22;4644;48.858;9.184;2023-01-31T03:07:52;2.40;99.90
9219;DHT22;4644;48.858;9.184;2023-01-31T03:10:41;2.40;99.90
9219;DHT22;4644;48.858;9.184;2023-01-31T03:13:25;2.40;99.90
9219;DHT22;4644;48.858;9.184;2023-01-31T03:16:05;2.40;99.90
9219;DHT22;4644;48.858;9.184;2023-01-31T03:18:56;2.40;99.90
9219;DHT22;4644;48.858;9.184;2023-01-31T03:21:30;2.40;99.90
9219;DHT22;4644;48.858;9.184;2023-01-31T03:23:58;2.40;99.90
9219;DHT22;4644;48.858;9.184;2023-01-31T03:26:26;2.50;99.90
9219;DHT22;4644;48.858;9.184;2023-01-31T03:28:54;2.50;99.90
9219;DHT22;4644;48.858;9.184;2023-01-31T03:31:25;2.50;99.90
9219;DHT22;4644;48.858;9.184;2023-01-31T03:33:55;2.50;99.90
9219;DHT22;4644;48.858;9.184;2023-01-31T03:36:29;2.50;99.90
9219;DHT22;4644;48.858;9.184;2023-01-31T03:39:07;2.50;99.90
9219;DHT22;4644;48.858;9.184;2023-01-31T03:41:42;2.50;99.90
9219;DHT22;4644;48.858;9.184;2023-01-31T03:44:14;2.60;99.90
9219;DHT22;4644;48.858;9.184;2023-01-31T03:46:45;2.60;99.90
9219;DHT22;4644;48.858;9.184;2023-01-31T03:49:14;2.60;99.90
9219;DHT22;4644;48.858;9.184;2023-01-31T03:51:45;2.60;99.90
9219;DHT22;4644;48.858;9.184;2023-01-31T03:54:17;2.60;99.90
9219;DHT22;4644;48.858;9.184;2023-01-31T03:56:49;2.60;99.90
9219;DHT22;4644;48.858;9.184;2023-01-31T03:59:22;2.60;99.90
9219;DHT22;4644;48.858;9.184;2023-01-31T04:01:52;2.50;99.90
9219;DHT22;4644;48.858;9.184;2023-01-31T04:04:23;2.50;99.90
9219;DHT22;4644;48.858;9.184;2023-01-31T04:06:52;2.50;99.90
9219;DHT22;4644;48.858;9.184;2023-01-31T04:09:19;2.50;99.90
9219;DHT22;4644;48.858;9.184;2023-01-31T04:11:47;2.50;99.90
9219;DHT22;4644;48.858;9.184;2023-01-31T04:14:15;2.50;99.90
9219;DHT22;4644;48.858;9.184;2023-01-31T04:16:42;2.40;99.90
9219;DHT22;4644;48.858;9.184;2023-01-31T04:19:09;2.30;99.90
9219;DHT22;4644;48.858;9.184;2023-01-31T04:21:37;2.30;99.90
9219;DHT22;4644;48.858;9.184;2023-01-31T04:24:05;2.20;99.90
9219;DHT22;4644;48.858;9.184;2023-01-31T04:26:34;2.20;99.90
9219;DHT22;4644;48.858;9.184;2023-01-31T04:29:01;2.10;99.90
9219;DHT22;4644;48.858;9.184;2023-01-31T04:31:28;2.10;99.90
9219;DHT22;4644;48.858;9.184;2023-01-31T04:33:55;2.00;99.90
9219;DHT22;4644;48.858;9.184;2023-01-31T04:36:23;1.90;99.90
9219;DHT22;4644;48.858;9.184;2023-01-31T04:38:50;1.80;99.90
9219;DHT22;4644;48.858;9.184;2023-01-31T04:41:18;1.80;99.90
9219;DHT22;4644;48.858;9.184;2023-01-31T04:43:45;1.80;99.90
9219;DHT22;4644;48.858;9.184;2023-01-31T04:46:12;1.70;99.90
9219;DHT22;4644;48.858;9.184;2023-01-31T04:48:39;1.70;99.90
9219;DHT22;4644;48.858;9.184;2023-01-31T04:51:06;1.50;99.90
9219;DHT22;4644;48.858;9.184;2023-01-31T04:53:33;1.50;99.90
9219;DHT22;4644;48.858;9.184;2023-01-31T04:56:00;1.50;99.90
9219;DHT22;4644;48.858;9.184;2023-01-31T04:58:29;1.50;99.90
9219;DHT22;4644;48.858;9.184;2023-01-31T05:00:56;1.50;99.90
9219;DHT22;4644;48.858;9.184;2023-01-31T05:03:23;1.50;99.90
9219;DHT22;4644;48.858;9.184;2023-01-31T05:05:50;1.60;99.90
9219;DHT22;4644;48.858;9.184;2023-01-31T05:08:17;1.60;99.90
9219;DHT22;4644;48.858;9.184;2023-01-31T05:10:43;1.60;99.90
9219;DHT22;4644;48.858;9.184;2023-01-31T05:13:11;1.60;99.90
9219;DHT22;4644;48.858;9.184;2023-01-31T05:15:40;1.60;99.90
9219;DHT22;4644;48.858;9.184;2023-01-31T05:18:07;1.60;99.90
9219;DHT22;4644;48.858;9.184;2023-01-31T05:20:36;1.60;99.90
9219;DHT22;4644;48.858;9.184;2023-01-31T05:23:05;1.60;99.90
9219;DHT22;4644;48.858;9.184;2023-01-31T05:25:33;1.60;99.90
9219;DHT22;4644;48.858;9.184;2023-01-31T05:28:00;1.60;99.90
9219;DHT22;4644;48.858;9.184;2023-01-31T05:30:27;1.50;99.90
9219;DHT22;4644;48.858;9.184;2023-01-31T05:32:55;1.50;99.90
9219;DHT22;4644;48.858;9.184;2023-01-31T05:35:22;1.40;99.90
9219;DHT22;4644;48.858;9.184;2023-01-31T05:37:51;1.40;99.90
9219;DHT22;4644;48.858;9.184;2023-01-31T05:40:18;1.40;99.90
9219;DHT22;4644;48.858;9.184;2023-01-31T05:42:51;1.30;99.90
9219;DHT22;4644;48.858;9.184;2023-01-31T05:45:19;1.20;99.90
9219;DHT22;4644;48.858;9.184;2023-01-31T05:47:46;1.20;99.90
9219;DHT22;4644;48.858;9.184;2023-01-31T05:50:15;1.20;99.90
9219;DHT22;4644;48.858;9.184;2023-01-31T05:52:42;1.20;99.90
9219;DHT22;4644;48.858;9.184;2023-01-31T05:55:09;1.20;99.90
9219;DHT22;4644;48.858;9.184;2023-01-31T05:57:36;1.20;99.90
9219;DHT22;4644;48.858;9.184;2023-01-31T06:00:03;1.10;99.90
9219;DHT22;4644;48.858;9.184;2023-01-31T06:02:30;1.10;99.90
9219;DHT22;4644;48.858;9.184;2023-01-31T06:04:57;1.00;99.90
9219;DHT22;4644;48.858;9.184;2023-01-31T06:07:26;0.90;99.90
9219;DHT22;4644;48.858;9.184;2023-01-31T06:09:53;0.90;99.90
9219;DHT22;4644;48.858;9.184;2023-01-31T06:12:20;0.80;99.90
9219;DHT22;4644;48.858;9.184;2023-01-31T06:14:46;0.80;99.90
9219;DHT22;4644;48.858;9.184;2023-01-31T06:17:14;0.70;99.90
9219;DHT22;4644;48.858;9.184;2023-01-31T06:19:40;0.70;99.90
9219;DHT22;4644;48.858;9.184;2023-01-31T06:22:07;0.70;99.90
9219;DHT22;4644;48.858;9.184;2023-01-31T06:24:36;0.70;99.90
9219;DHT22;4644;48.858;9.184;2023-01-31T06:27:03;0.60;99.90
9219;DHT22;4644;48.858;9.184;2023-01-31T06:29:30;0.60;99.90
9219;DHT22;4644;48.858;9.184;2023-01-31T06:31:57;0.50;99.90
9219;DHT22;4644;48.858;9.184;2023-01-31T06:34:24;0.50;99.90
9219;DHT22;4644;48.858;9.184;2023-01-31T06:36:51;0.50;99.90
9219;DHT22;4644;48.858;9.184;2023-01-31T06:39:18;0.40;99.90
9219;DHT22;4644;48.858;9.184;2023-01-31T06:41:46;0.40;99.90
9219;DHT22;4644;48.858;9.184;2023-01-31T06:44:13;0.40;99.90
9219;DHT22;4644;48.858;9.184;2023-01-31T06:46:40;0.40;99.90
9219;DHT22;4644;48.858;9.184;2023-01-31T06:49:07;0.30;99.90
9219;DHT22;4644;48.858;9.184;2023-01-31T06:51:34;0.30;99.90
9219;DHT22;4644;48.858;9.184;2023-01-31T06:54:01;0.20;99.90
9219;DHT22;4644;48.858;9.184;2023-01-31T06:56:28;0.20;99.90
9219;DHT22;4644;48.858;9.184;2023-01-31T06:58:56;0.10;99.90
9219;DHT22;4644;48.858;9.184;2023-01-31T07:01:23;0.10;99.90
9219;DHT22;4644;48.858;9.184;2023-01-31T07:03:51;0.00;99.90
9219;DHT22;4644;48.858;9.184;2023-01-31T07:06:18;0.10;99.90
9219;DHT22;4644;48.858;9.184;2023-01-31T07:08:46;0.00;99.90
9219;DHT22;4644;48.858;9.184;2023-01-31T07:11:13;0.00;99.90
9219;DHT22;4644;48.858;9.184;2023-01-31T07:13:40;0.00;99.90
9219;DHT22;4644;48.858;9.184;2023-01-31T07:16:08;0.10;99.90
9219;DHT22;4644;48.858;9.184;2023-01-31T07:18:35;0.20;99.90
9219;DHT22;4644;48.858;9.184;2023-01-31T07:21:02;0.30;99.90
9219;DHT22;4644;48.858;9.184;2023-01-31T07:23:29;0.40;99.90
9219;DHT22;4644;48.858;9.184;2023-01-31T07:25:56;0.40;99.90
9219;DHT22;4644;48.858;9.184;2023-01-31T07:28:23;0.50;99.90
9219;DHT22;4644;48.858;9.184;2023-01-31T07:30:49;0.50;99.90
9219;DHT22;4644;48.858;9.184;2023-01-31T07:33:18;0.50;99.90
9219;DHT22;4644;48.858;9.184;2023-01-31T07:35:45;0.50;99.90
9219;DHT22;4644;48.858;9.184;2023-01-31T07:38:12;0.50;99.90
9219;DHT22;4644;48.858;9.184;2023-01-31T07:40:39;0.60;99.90
9219;DHT22;4644;48.858;9.184;2023-01-31T07:43:05;0.60;99.90
9219;DHT22;4644;48.858;9.184;2023-01-31T07:45:32;0.70;99.90
9219;DHT22;4644;48.858;9.184;2023-01-31T07:47:59;0.70;99.90
9219;DHT22;4644;48.858;9.184;2023-01-31T07:50:28;0.80;99.90
9219;DHT22;4644;48.858;9.184;2023-01-31T07:52:56;0.80;99.90
9219;DHT22;4644;48.858;9.184;2023-01-31T07:55:23;0.90;99.90
9219;DHT22;4644;48.858;9.184;2023-01-31T07:57:50;0.90;99.90
9219;DHT22;4644;48.858;9.184;2023-01-31T08:00:18;1.00;99.90
9219;DHT22;4644;48.858;9.184;2023-01-31T08:03:02;1.20;99.90
9219;DHT22;4644;48.858;9.184;2023-01-31T08:05:47;1.40;99.90
9219;DHT22;4644;48.858;9.184;2023-01-31T08:08:14;1.50;99.90
9219;DHT22;4644;48.858;9.184;2023-01-31T08:10:41;1.70;99.90
9219;DHT22;4644;48.858;9.184;2023-01-31T08:13:08;1.80;99.90
9219;DHT22;4644;48.858;9.184;2023-01-31T08:15:36;1.90;99.90
9219;DHT22;4644;48.858;9.184;2023-01-31T08:18:03;2.10;99.90
9219;DHT22;4644;48.858;9.184;2023-01-31T08:20:30;2.20;99.90
9219;DHT22;4644;48.858;9.184;2023-01-31T08:22:58;2.40;99.90
9219;DHT22;4644;48.858;9.184;2023-01-31T08:25:26;2.50;99.90
9219;DHT22;4644;48.858;9.184;2023-01-31T08:27:56;2.60;99.90
9219;DHT22;4644;48.858;9.184;2023-01-31T08:30:23;2.70;99.90
9219;DHT22;4644;48.858;9.184;2023-01-31T08:32:50;2.80;99.90
9219;DHT22;4644;48.858;9.184;2023-01-31T08:35:17;2.90;99.90
9219;DHT22;4644;48.858;9.184;2023-01-31T08:37:44;3.00;99.90
9219;DHT22;4644;48.858;9.184;2023-01-31T08:40:14;3.00;99.90
9219;DHT22;4644;48.858;9.184;2023-01-31T08:42:40;3.10;99.90
9219;DHT22;4644;48.858;9.184;2023-01-31T08:45:08;3.20;99.90
9219;DHT22;4644;48.858;9.184;2023-01-31T08:47:35;3.20;99.90
9219;DHT22;4644;48.858;9.184;2023-01-31T08:50:04;3.20;99.90
9219;DHT22;4644;48.858;9.184;2023-01-31T08:55:57;3.30;99.90
9219;DHT22;4644;48.858;9.184;2023-01-31T08:58:24;3.40;99.90
9219;DHT22;4644;48.858;9.184;2023-01-31T09:00:51;3.40;99.90
9219;DHT22;4644;48.858;9.184;2023-01-31T09:03:18;3.50;99.90
9219;DHT22;4644;48.858;9.184;2023-01-31T09:05:45;3.50;99.90
9219;DHT22;4644;48.858;9.184;2023-01-31T09:08:12;3.60;99.90
9219;DHT22;4644;48.858;9.184;2023-01-31T09:10:38;3.60;99.90
9219;DHT22;4644;48.858;9.184;2023-01-31T09:13:07;3.70;99.90
9219;DHT22;4644;48.858;9.184;2023-01-31T09:15:34;3.80;99.90
9219;DHT22;4644;48.858;9.184;2023-01-31T09:18:00;3.90;99.90
9219;DHT22;4644;48.858;9.184;2023-01-31T09:20:29;4.00;99.90
9219;DHT22;4644;48.858;9.184;2023-01-31T09:22:56;4.30;99.90
9219;DHT22;4644;48.858;9.184;2023-01-31T09:25:23;4.50;99.90
9219;DHT22;4644;48.858;9.184;2023-01-31T09:27:51;4.60;99.90
9219;DHT22;4644;48.858;9.184;2023-01-31T09:30:20;4.70;99.90
9219;DHT22;4644;48.858;9.184;2023-01-31T09:32:47;4.80;99.90
9219;DHT22;4644;48.858;9.184;2023-01-31T09:35:14;4.80;99.90
9219;DHT22;4644;48.858;9.184;2023-01-31T09:37:43;4.90;99.90
9219;DHT22;4644;48.858;9.184;2023-01-31T09:40:15;5.10;99.90
9219;DHT22;4644;48.858;9.184;2023-01-31T09:42:47;5.20;99.90
9219;DHT22;4644;48.858;9.184;2023-01-31T09:45:27;5.20;99.90
9219;DHT22;4644;48.858;9.184;2023-01-31T09:47:59;5.30;99.90
9219;DHT22;4644;48.858;9.184;2023-01-31T09:50:32;5.30;99.90
9219;DHT22;4644;48.858;9.184;2023-01-31T09:53:00;5.20;99.90
9219;DHT22;4644;48.858;9.184;2023-01-31T09:55:34;5.20;99.90
9219;DHT22;4644;48.858;9.184;2023-01-31T09:58:10;5.20;99.90
9219;DHT22;4644;48.858;9.184;2023-01-31T10:00:46;5.10;99.90
9219;DHT22;4644;48.858;9.184;2023-01-31T10:03:37;5.10;99.90
9219;DHT22;4644;48.858;9.184;2023-01-31T10:06:11;5.10;99.90
9219;DHT22;4644;48.858;9.184;2023-01-31T10:08:43;5.10;99.90
9219;DHT22;4644;48.858;9.184;2023-01-31T10:11:15;5.10;99.90
9219;DHT22;4644;48.858;9.184;2023-01-31T10:13:46;5.10;99.90
9219;DHT22;4644;48.858;9.184;2023-01-31T10:16:22;5.10;99.90
9219;DHT22;4644;48.858;9.184;2023-01-31T10:18:56;5.10;99.90
9219;DHT22;4644;48.858;9.184;2023-01-31T10:21:29;5.10;99.90
9219;DHT22;4644;48.858;9.184;2023-01-31T10:24:02;5.10;99.90
9219;DHT22;4644;48.858;9.184;2023-01-31T10:26:31;5.20;99.90
9219;DHT22;4644;48.858;9.184;2023-01-31T10:29:01;5.10;99.90
9219;DHT22;4644;48.858;9.184;2023-01-31T10:31:34;5.00;99.90
9219;DHT22;4644;48.858;9.184;2023-01-31T10:34:08;5.00;99.90
9219;DHT22;4644;48.858;9.184;2023-01-31T10:36:39;5.10;99.90
9219;DHT22;4644;48.858;9.184;2023-01-31T10:39:14;5.20;99.90
9219;DHT22;4644;48.858;9.184;2023-01-31T10:41:58;5.40;99.90
9219;DHT22;4644;48.858;9.184;2023-01-31T10:44:36;5.40;99.90
9219;DHT22;4644;48.858;9.184;2023-01-31T10:47:11;5.30;99.90
9219;DHT22;4644;48.858;9.184;2023-01-31T10:49:41;5.30;99.90
9219;DHT22;4644;48.858;9.184;2023-01-31T10:52:29;5.30;99.90
9219;DHT22;4644;48.858;9.184;2023-01-31T10:55:07;5.30;99.90
9219;DHT22;4644;48.858;9.184;2023-01-31T10:57:36;5.30;99.90
9219;DHT22;4644;48.858;9.184;2023-01-31T11:00:05;5.40;99.90
9219;DHT22;4644;48.858;9.184;2023-01-31T11:02:32;5.40;99.90
9219;DHT22;4644;48.858;9.184;2023-01-31T11:05:00;5.50;99.90
9219;DHT22;4644;48.858;9.184;2023-01-31T11:07:29;5.40;99.90
9219;DHT22;4644;48.858;9.184;2023-01-31T11:09:56;5.50;99.90
9219;DHT22;4644;48.858;9.184;2023-01-31T11:12:39;5.50;99.90
9219;DHT22;4644;48.858;9.184;2023-01-31T11:15:14;5.60;99.90
9219;DHT22;4644;48.858;9.184;2023-01-31T11:17:43;5.60;99.90
9219;DHT22;4644;48.858;9.184;2023-01-31T11:20:23;5.70;99.90
9219;DHT22;4644;48.858;9.184;2023-01-31T11:22:50;5.70;99.90
9219;DHT22;4644;48.858;9.184;2023-01-31T11:25:20;5.70;99.90
9219;DHT22;4644;48.858;9.184;2023-01-31T11:27:48;5.80;99.90
9219;DHT22;4644;48.858;9.184;2023-01-31T11:30:22;5.80;99.90
9219;DHT22;4644;48.858;9.184;2023-01-31T11:32:51;5.80;99.90
9219;DHT22;4644;48.858;9.184;2023-01-31T11:35:25;5.80;99.90
9219;DHT22;4644;48.858;9.184;2023-01-31T11:37:54;5.80;99.90
9219;DHT22;4644;48.858;9.184;2023-01-31T11:40:26;5.80;99.90
9219;DHT22;4644;48.858;9.184;2023-01-31T11:42:56;5.90;99.90
9219;DHT22;4644;48.858;9.184;2023-01-31T11:45:24;5.90;99.90
9219;DHT22;4644;48.858;9.184;2023-01-31T11:47:54;6.00;99.90
9219;DHT22;4644;48.858;9.184;2023-01-31T11:50:29;6.00;99.90
9219;DHT22;4644;48.858;9.184;2023-01-31T11:52:58;6.00;99.90
9219;DHT22;4644;48.858;9.184;2023-01-31T11:55:27;6.00;99.90
9219;DHT22;4644;48.858;9.184;2023-01-31T11:58:06;6.00;99.90
9219;DHT22;4644;48.858;9.184;2023-01-31T12:00:34;6.10;99.90
9219;DHT22;4644;48.858;9.184;2023-01-31T12:03:04;6.10;99.90
9219;DHT22;4644;48.858;9.184;2023-01-31T12:05:37;6.10;99.90
9219;DHT22;4644;48.858;9.184;2023-01-31T12:08:04;6.10;99.90
9219;DHT22;4644;48.858;9.184;2023-01-31T12:10:39;6.00;99.90
9219;DHT22;4644;48.858;9.184;2023-01-31T12:13:15;6.00;99.90
9219;DHT22;4644;48.858;9.184;2023-01-31T12:15:50;5.90;99.90
9219;DHT22;4644;48.858;9.184;2023-01-31T12:18:36;6.00;99.90
9219;DHT22;4644;48.858;9.184;2023-01-31T12:21:12;5.90;99.90
9219;DHT22;4644;48.858;9.184;2023-01-31T12:23:51;5.90;99.90
9219;DHT22;4644;48.858;9.184;2023-01-31T12:26:29;6.00;99.90
9219;DHT22;4644;48.858;9.184;2023-01-31T12:29:10;6.00;99.90
9219;DHT22;4644;48.858;9.184;2023-01-31T12:32:00;6.10;99.90
9219;DHT22;4644;48.858;9.184;2023-01-31T12:34:42;6.10;99.90
9219;DHT22;4644;48.858;9.184;2023-01-31T12:37:26;6.30;99.90
9219;DHT22;4644;48.858;9.184;2023-01-31T12:40:06;6.40;99.90
9219;DHT22;4644;48.858;9.184;2023-01-31T12:42:51;6.50;99.90
9219;DHT22;4644;48.858;9.184;2023-01-31T12:45:27;6.30;99.90
9219;DHT22;4644;48.858;9.184;2023-01-31T12:51:21;6.10;99.90
9219;DHT22;4644;48.858;9.184;2023-01-31T12:54:00;6.00;99.90
9219;DHT22;4644;48.858;9.184;2023-01-31T12:56:49;5.90;99.90
9219;DHT22;4644;48.858;9.184;2023-01-31T12:59:37;5.80;99.90
9219;DHT22;4644;48.858;9.184;2023-01-31T13:02:17;5.70;99.90
9219;DHT22;4644;48.858;9.184;2023-01-31T13:04:52;5.50;99.90
9219;DHT22;4644;48.858;9.184;2023-01-31T13:07:25;5.60;99.90
9219;DHT22;4644;48.858;9.184;2023-01-31T13:09:57;5.50;99.90
9219;DHT22;4644;48.858;9.184;2023-01-31T13:12:29;5.50;99.90
9219;DHT22;4644;48.858;9.184;2023-01-31T13:15:01;5.50;99.90
9219;DHT22;4644;48.858;9.184;2023-01-31T13:17:31;5.50;99.90
9219;DHT22;4644;48.858;9.184;2023-01-31T13:20:18;5.50;99.90
9219;DHT22;4644;48.858;9.184;2023-01-31T13:22:50;5.40;99.90
9219;DHT22;4644;48.858;9.184;2023-01-31T13:25:31;5.40;99.90
9219;DHT22;4644;48.858;9.184;2023-01-31T13:28:04;5.40;99.90
9219;DHT22;4644;48.858;9.184;2023-01-31T13:30:35;5.40;99.90
9219;DHT22;4644;48.858;9.184;2023-01-31T13:33:13;5.40;99.90
9219;DHT22;4644;48.858;9.184;2023-01-31T13:35:45;5.40;99.90
9219;DHT22;4644;48.858;9.184;2023-01-31T13:38:16;5.40;99.90
9219;DHT22;4644;48.858;9.184;2023-01-31T13:40:48;5.40;99.90
9219;DHT22;4644;48.858;9.184;2023-01-31T13:43:17;5.40;99.90
9219;DHT22;4644;48.858;9.184;2023-01-31T13:45:47;5.40;99.90
9219;DHT22;4644;48.858;9.184;2023-01-31T13:48:23;5.30;99.90
9219;DHT22;4644;48.858;9.184;2023-01-31T13:50:53;5.40;99.90
9219;DHT22;4644;48.858;9.184;2023-01-31T13:53:31;5.30;99.90
9219;DHT22;4644;48.858;9.184;2023-01-31T13:56:07;5.40;99.90
9219;DHT22;4644;48.858;9.184;2023-01-31T13:58:42;5.50;99.90
9219;DHT22;4644;48.858;9.184;2023-01-31T14:01:16;5.60;99.90
9219;DHT22;4644;48.858;9.184;2023-01-31T14:04:20;5.50;99.90
9219;DHT22;4644;48.858;9.184;2023-01-31T14:07:27;5.50;99.90
9219;DHT22;4644;48.858;9.184;2023-01-31T14:10:25;5.40;99.90
9219;DHT22;4644;48.858;9.184;2023-01-31T14:16:41;5.30;99.90
9219;DHT22;4644;48.858;9.184;2023-01-31T14:22:24;5.40;99.90
9219;DHT22;4644;48.858;9.184;2023-01-31T14:24:57;5.40;99.90
9219;DHT22;4644;48.858;9.184;2023-01-31T14:27:37;5.50;99.90
9219;DHT22;4644;48.858;9.184;2023-01-31T14:33:05;5.70;99.90
9219;DHT22;4644;48.858;9.184;2023-01-31T14:36:14;5.70;99.90
9219;DHT22;4644;48.858;9.184;2023-01-31T14:42:00;5.70;99.90
9219;DHT22;4644;48.858;9.184;2023-01-31T14:44:41;5.60;99.90
9219;DHT22;4644;48.858;9.184;2023-01-31T14:47:22;5.50;99.90
9219;DHT22;4644;48.858;9.184;2023-01-31T14:53:09;5.30;99.90
9219;DHT22;4644;48.858;9.184;2023-01-31T14:55:59;5.30;99.90
9219;DHT22;4644;48.858;9.184;2023-01-31T14:58:30;5.20;99.90
9219;DHT22;4644;48.858;9.184;2023-01-31T15:01:04;5.20;99.90
9219;DHT22;4644;48.858;9.184;2023-01-31T15:03:35;5.20;99.90
9219;DHT22;4644;48.858;9.184;2023-01-31T15:06:08;5.20;99.90
9219;DHT22;4644;48.858;9.184;2023-01-31T15:08:43;5.20;99.90
9219;DHT22;4644;48.858;9.184;2023-01-31T15:11:13;5.20;99.90
9219;DHT22;4644;48.858;9.184;2023-01-31T15:14:00;5.20;99.90
9219;DHT22;4644;48.858;9.184;2023-01-31T15:16:29;5.20;99.90
9219;DHT22;4644;48.858;9.184;2023-01-31T15:19:05;5.20;99.90
9219;DHT22;4644;48.858;9.184;2023-01-31T15:21:41;5.20;99.90
9219;DHT22;4644;48.858;9.184;2023-01-31T15:24:16;5.20;99.90
9219;DHT22;4644;48.858;9.184;2023-01-31T15:26:45;5.20;99.90
9219;DHT22;4644;48.858;9.184;2023-01-31T15:29:17;5.20;99.90
9219;DHT22;4644;48.858;9.184;2023-01-31T15:31:47;5.20;99.90
9219;DHT22;4644;48.858;9.184;2023-01-31T15:34:19;5.20;99.90
9219;DHT22;4644;48.858;9.184;2023-01-31T15:36:57;5.10;99.90
9219;DHT22;4644;48.858;9.184;2023-01-31T15:39:31;5.20;99.90
9219;DHT22;4644;48.858;9.184;2023-01-31T15:42:18;5.20;99.90
9219;DHT22;4644;48.858;9.184;2023-01-31T15:44:46;5.20;99.90
9219;DHT22;4644;48.858;9.184;2023-01-31T15:47:19;5.10;99.90
9219;DHT22;4644;48.858;9.184;2023-01-31T15:49:46;5.10;99.90
9219;DHT22;4644;48.858;9.184;2023-01-31T15:52:16;5.10;99.90
9219;DHT22;4644;48.858;9.184;2023-01-31T15:54:54;5.10;99.90
9219;DHT22;4644;48.858;9.184;2023-01-31T15:57:22;5.10;99.90
9219;DHT22;4644;48.858;9.184;2023-01-31T15:59:51;5.10;99.90
9219;DHT22;4644;48.858;9.184;2023-01-31T16:02:21;5.10;99.90
9219;DHT22;4644;48.858;9.184;2023-01-31T16:04:56;5.00;99.90
9219;DHT22;4644;48.858;9.184;2023-01-31T16:07:28;5.00;99.90
9219;DHT22;4644;48.858;9.184;2023-01-31T16:09:59;4.90;99.90
9219;DHT22;4644;48.858;9.184;2023-01-31T16:12:32;4.90;99.90
9219;DHT22;4644;48.858;9.184;2023-01-31T16:15:06;4.90;99.90
9219;DHT22;4644;48.858;9.184;2023-01-31T16:17:33;4.80;99.90
9219;DHT22;4644;48.858;9.184;2023-01-31T16:20:00;4.80;99.90
9219;DHT22;4644;48.858;9.184;2023-01-31T16:22:30;4.80;99.90
9219;DHT22;4644;48.858;9.184;2023-01-31T16:25:02;4.80;99.90
9219;DHT22;4644;48.858;9.184;2023-01-31T16:27:32;4.80;99.90
9219;DHT22;4644;48.858;9.184;2023-01-31T16:30:03;4.80;99.90
9219;DHT22;4644;48.858;9.184;2023-01-31T16:32:36;4.90;99.90
9219;DHT22;4644;48.858;9.184;2023-01-31T16:35:07;4.90;99.90
9219;DHT22;4644;48.858;9.184;2023-01-31T16:37:46;4.90;99.90
9219;DHT22;4644;48.858;9.184;2023-01-31T16:40:19;4.80;99.90
9219;DHT22;4644;48.858;9.184;2023-01-31T16:42:47;4.90;99.90
9219;DHT22;4644;48.858;9.184;2023-01-31T16:45:28;4.90;99.90
9219;DHT22;4644;48.858;9.184;2023-01-31T16:48:18;4.90;99.90
9219;DHT22;4644;48.858;9.184;2023-01-31T16:50:46;4.90;99.90
9219;DHT22;4644;48.858;9.184;2023-01-31T16:53:23;4.90;99.90
9219;DHT22;4644;48.858;9.184;2023-01-31T16:56:21;4.90;99.90
9219;DHT22;4644;48.858;9.184;2023-01-31T16:58:53;4.90;99.90
9219;DHT22;4644;48.858;9.184;2023-01-31T17:01:24;4.90;99.90
9219;DHT22;4644;48.858;9.184;2023-01-31T17:04:14;4.90;99.90
9219;DHT22;4644;48.858;9.184;2023-01-31T17:06:44;4.90;99.90
9219;DHT22;4644;48.858;9.184;2023-01-31T17:09:17;5.00;99.90
9219;DHT22;4644;48.858;9.184;2023-01-31T17:11:45;4.90;99.90
9219;DHT22;4644;48.858;9.184;2023-01-31T17:14:12;4.90;99.90
9219;DHT22;4644;48.858;9.184;2023-01-31T17:16:39;4.90;99.90